You are listening to:
KJXN Del/Gnd/Twr/App - Jackson, Michigan, United States

KJXN 140956Z AUTO 20006KT 8SM SCT027 OVC045 M04/M07 A3009 RMK AO2 SNE50 SLP203 P0000 T10391067

If stream does not start automatically press the play button